Time;durP1;ratioP1;P1;durP2;ratioP2;P2;SDS_P1;SDS_P2;PMS_P1;PMS_P2;Temp;Humidity;BMP_temperature;BMP_pressure;BME280_temperature;BME280_humidity;BME280_pressure;Samples;Min_cycle;Max_cycle;Signal;HPM_P1;HPM_P2
2023/05/31 00:00:14;;;;;;;5.43;2.00;;;;;;;;;;4973330;28;20050;-80
2023/05/31 00:02:41;;;;;;;5.43;1.50;;;;;;;;;;4989980;28;20129;-80
2023/05/31 00:05:08;;;;;;;4.20;1.58;;;;;;;;;;4977663;28;20109;-80
2023/05/31 00:07:35;;;;;;;3.58;1.30;;;;;;;;;;4977696;28;20085;-80
2023/05/31 00:10:02;;;;;;;4.63;1.85;;;;;;;;;;4998625;28;20112;-81
2023/05/31 00:12:29;;;;;;;3.13;1.40;;;;;;;;;;5005905;28;20054;-80
2023/05/31 00:14:56;;;;;;;6.68;1.70;;;;;;;;;;4976747;28;20478;-79
2023/05/31 00:17:22;;;;;;;7.78;1.33;;;;;;;;;;4993935;28;20089;-79
2023/05/31 00:20:10;;;;;;;2.45;1.65;;;;;;;;;;4975951;28;20051;-79
2023/05/31 00:22:36;;;;;;;3.47;1.60;;;;;;;;;;4960256;28;20482;-79
2023/05/31 00:25:03;;;;;;;4.25;1.52;;;;;;;;;;4975382;28;20054;-79
2023/05/31 00:27:30;;;;;;;4.82;1.30;;;;;;;;;;4977291;28;20085;-79
2023/05/31 00:29:57;;;;;;;2.70;1.52;;;;;;;;;;4992185;28;20090;-79
2023/05/31 00:32:24;;;;;;;2.67;1.50;;;;;;;;;;4976083;28;20487;-79
2023/05/31 00:34:50;;;;;;;7.03;1.60;;;;;;;;;;4976437;28;20062;-79
2023/05/31 00:37:17;;;;;;;5.80;1.63;;;;;;;;;;4946168;28;20081;-80
2023/05/31 00:39:44;;;;;;;3.00;1.92;;;;;;;;;;4976452;28;20089;-80
2023/05/31 00:42:11;;;;;;;3.22;1.30;;;;;;;;;;4974893;28;20043;-79
2023/05/31 00:44:38;;;;;;;3.00;1.40;;;;;;;;;;4976943;28;20081;-80
2023/05/31 00:47:05;;;;;;;5.47;1.80;;;;;;;;;;4959437;28;20073;-80
2023/05/31 00:49:32;;;;;;;4.00;1.80;;;;;;;;;;4967374;28;20070;-80
2023/05/31 00:51:59;;;;;;;4.05;1.42;;;;;;;;;;4967691;28;20058;-81
2023/05/31 00:54:25;;;;;;;3.53;2.00;;;;;;;;;;4967401;28;20133;-80
2023/05/31 00:56:52;;;;;;;3.85;1.65;;;;;;;;;;4964311;28;20051;-80
2023/05/31 00:59:19;;;;;;;3.95;2.00;;;;;;;;;;4976636;28;20082;-80
2023/05/31 01:01:46;;;;;;;4.40;1.88;;;;;;;;;;4981579;28;20110;-80
2023/05/31 01:04:13;;;;;;;3.10;1.20;;;;;;;;;;4965927;28;20118;-80
2023/05/31 01:06:39;;;;;;;3.13;1.77;;;;;;;;;;4982034;28;20565;-79
2023/05/31 01:09:09;;;;;;;4.60;1.67;;;;;;;;;;4979725;28;20096;-80
2023/05/31 01:11:55;;;;;;;3.45;1.45;;;;;;;;;;4995092;28;20082;-80
2023/05/31 01:14:31;;;;;;;3.72;1.85;;;;;;;;;;4980305;28;20071;-80
2023/05/31 01:17:13;;;;;;;4.35;2.13;;;;;;;;;;4995852;28;20093;-80
2023/05/31 01:19:48;;;;;;;5.35;1.55;;;;;;;;;;4968610;28;20054;-80
2023/05/31 01:22:32;;;;;;;3.35;1.58;;;;;;;;;;4968247;28;20074;-80
2023/05/31 01:25:14;;;;;;;5.50;1.65;;;;;;;;;;4968357;28;20467;-80
2023/05/31 01:27:41;;;;;;;7.32;1.95;;;;;;;;;;4968894;28;20046;-80
2023/05/31 01:30:09;;;;;;;3.95;2.00;;;;;;;;;;4968247;28;20576;-80
2023/05/31 01:32:36;;;;;;;3.17;1.48;;;;;;;;;;4967912;28;20057;-80
2023/05/31 01:35:03;;;;;;;3.83;1.30;;;;;;;;;;4969117;28;20118;-80
2023/05/31 01:37:30;;;;;;;5.25;1.55;;;;;;;;;;4968961;28;20089;-80
2023/05/31 01:39:58;;;;;;;3.47;1.45;;;;;;;;;;4967625;28;20313;-79
2023/05/31 01:42:25;;;;;;;3.05;1.55;;;;;;;;;;4967872;28;20061;-80
2023/05/31 01:44:52;;;;;;;3.15;1.52;;;;;;;;;;4967657;28;20081;-80
2023/05/31 01:47:32;;;;;;;2.67;1.55;;;;;;;;;;4930903;29;20151;-79
2023/05/31 01:49:59;;;;;;;2.50;1.40;;;;;;;;;;4927003;29;20051;-80
2023/05/31 01:52:26;;;;;;;4.82;1.52;;;;;;;;;;4924308;29;20083;-80
2023/05/31 01:54:53;;;;;;;3.63;1.55;;;;;;;;;;4910395;29;20086;-80
2023/05/31 01:57:20;;;;;;;5.25;1.70;;;;;;;;;;4894706;29;20055;-80
2023/05/31 01:59:47;;;;;;;4.70;2.13;;;;;;;;;;4927485;29;20051;-80
2023/05/31 02:02:13;;;;;;;3.30;1.52;;;;;;;;;;4931457;28;20055;-80
2023/05/31 02:04:40;;;;;;;5.95;1.90;;;;;;;;;;4942016;29;20530;-80
2023/05/31 02:07:09;;;;;;;3.90;1.50;;;;;;;;;;4913059;29;20047;-80
2023/05/31 02:09:35;;;;;;;3.28;1.60;;;;;;;;;;4912014;29;20047;-79
2023/05/31 02:12:03;;;;;;;3.42;2.00;;;;;;;;;;4927701;29;20467;-80
2023/05/31 02:14:29;;;;;;;2.10;1.40;;;;;;;;;;4942143;29;20054;-80
2023/05/31 02:16:56;;;;;;;3.25;1.75;;;;;;;;;;4941980;29;20050;-79
2023/05/31 02:19:25;;;;;;;3.97;1.50;;;;;;;;;;4971914;28;20050;-80
2023/05/31 02:21:52;;;;;;;2.95;1.50;;;;;;;;;;5008067;28;20062;-79
2023/05/31 02:24:19;;;;;;;3.92;1.80;;;;;;;;;;4974060;28;20073;-79
2023/05/31 02:26:46;;;;;;;3.58;1.67;;;;;;;;;;5009020;28;20542;-79
2023/05/31 02:29:12;;;;;;;3.03;1.50;;;;;;;;;;4967389;28;20146;-79
2023/05/31 02:31:39;;;;;;;2.83;2.30;;;;;;;;;;4966866;28;20113;-79
2023/05/31 02:34:06;;;;;;;2.38;1.60;;;;;;;;;;5035770;23;20062;-74
2023/05/31 02:36:33;;;;;;;3.10;1.65;;;;;;;;;;3171205;23;20050;-78
2023/05/31 02:39:00;;;;;;;3.67;1.40;;;;;;;;;;4975893;28;20104;-76
2023/05/31 02:41:27;;;;;;;4.45;2.00;;;;;;;;;;4975756;28;20084;-76
2023/05/31 02:43:54;;;;;;;2.58;1.48;;;;;;;;;;4992219;28;20057;-77
2023/05/31 02:46:21;;;;;;;3.65;1.50;;;;;;;;;;4991950;28;20058;-78
2023/05/31 02:48:48;;;;;;;3.05;2.22;;;;;;;;;;4975365;28;20046;-78
2023/05/31 02:51:15;;;;;;;3.10;1.40;;;;;;;;;;4976243;28;20065;-78
2023/05/31 02:53:41;;;;;;;8.65;1.88;;;;;;;;;;4960858;28;20100;-78
2023/05/31 02:56:08;;;;;;;3.20;1.85;;;;;;;;;;4961316;28;20081;-78
2023/05/31 02:58:35;;;;;;;3.38;1.52;;;;;;;;;;4976833;28;20122;-78
2023/05/31 03:01:02;;;;;;;3.47;1.40;;;;;;;;;;4976303;28;20133;-78
2023/05/31 03:03:29;;;;;;;2.17;1.40;;;;;;;;;;4961042;28;20859;-78
2023/05/31 03:05:56;;;;;;;3.78;1.33;;;;;;;;;;4960710;28;20042;-78
2023/05/31 03:08:22;;;;;;;4.85;2.03;;;;;;;;;;4976190;28;20049;-78
2023/05/31 03:10:49;;;;;;;5.70;1.83;;;;;;;;;;4960715;28;20082;-78
2023/05/31 03:13:16;;;;;;;3.78;1.52;;;;;;;;;;4992845;28;20096;-78
2023/05/31 03:15:44;;;;;;;3.08;1.40;;;;;;;;;;4973439;28;20051;-79
2023/05/31 03:18:11;;;;;;;3.25;1.40;;;;;;;;;;4958742;28;20109;-78
2023/05/31 03:20:38;;;;;;;3.90;1.70;;;;;;;;;;4958065;28;20109;-78
2023/05/31 03:23:06;;;;;;;4.10;1.48;;;;;;;;;;4958269;28;20065;-78
2023/05/31 03:25:33;;;;;;;3.40;1.58;;;;;;;;;;4959689;28;20054;-78
2023/05/31 03:28:00;;;;;;;2.28;1.60;;;;;;;;;;4971313;28;20530;-78
2023/05/31 03:30:27;;;;;;;2.83;1.50;;;;;;;;;;4978347;28;20548;-79
2023/05/31 03:32:53;;;;;;;2.00;1.48;;;;;;;;;;4977510;28;20054;-78
2023/05/31 03:35:20;;;;;;;4.03;1.40;;;;;;;;;;4977455;28;20050;-81
2023/05/31 03:37:47;;;;;;;1.88;1.20;;;;;;;;;;4977753;28;20089;-79
2023/05/31 03:40:14;;;;;;;3.22;2.00;;;;;;;;;;4978244;28;20801;-78
2023/05/31 03:42:41;;;;;;;3.42;1.58;;;;;;;;;;4978013;28;20058;-79
2023/05/31 03:45:08;;;;;;;3.00;1.50;;;;;;;;;;4978009;28;20684;-78
2023/05/31 03:47:35;;;;;;;3.25;1.30;;;;;;;;;;4979856;28;20081;-79
2023/05/31 03:50:04;;;;;;;2.00;1.38;;;;;;;;;;4979233;28;20046;-79
2023/05/31 03:52:31;;;;;;;4.85;1.45;;;;;;;;;;4979687;28;20100;-77
2023/05/31 03:54:58;;;;;;;6.65;1.58;;;;;;;;;;4980444;28;20129;-79
2023/05/31 03:57:25;;;;;;;3.30;1.45;;;;;;;;;;4984744;28;20081;-79
2023/05/31 03:59:53;;;;;;;4.20;1.80;;;;;;;;;;5000849;28;20097;-80
2023/05/31 04:02:19;;;;;;;4.82;1.83;;;;;;;;;;4952966;28;20117;-79
2023/05/31 04:04:46;;;;;;;3.60;1.20;;;;;;;;;;4967140;28;20053;-79
2023/05/31 04:07:13;;;;;;;5.30;1.95;;;;;;;;;;4962011;28;20133;-78
2023/05/31 04:09:40;;;;;;;4.70;1.70;;;;;;;;;;4965725;28;20074;-80
2023/05/31 04:12:07;;;;;;;2.20;1.33;;;;;;;;;;4977454;28;20061;-80
2023/05/31 04:14:34;;;;;;;2.53;1.60;;;;;;;;;;4994039;28;20121;-79
2023/05/31 04:17:01;;;;;;;4.47;1.80;;;;;;;;;;4967879;28;20065;-80
2023/05/31 04:19:28;;;;;;;3.67;2.25;;;;;;;;;;4972026;28;20069;-79
2023/05/31 04:21:55;;;;;;;3.13;1.63;;;;;;;;;;4970923;28;20054;-80
2023/05/31 04:24:21;;;;;;;3.83;1.80;;;;;;;;;;4967399;28;20054;-80
2023/05/31 04:26:48;;;;;;;3.72;1.50;;;;;;;;;;4966433;28;20069;-81
2023/05/31 04:29:17;;;;;;;6.32;1.80;;;;;;;;;;4968086;28;20436;-81
2023/05/31 04:31:44;;;;;;;4.03;1.63;;;;;;;;;;4968493;28;20077;-81
2023/05/31 04:34:18;;;;;;;;;;;;;;;;;;4975635;28;20060;-81
2023/05/31 04:36:48;;;;;;;6.03;1.63;;;;;;;;;;4985058;28;20362;-81
2023/05/31 04:39:16;;;;;;;2.15;1.58;;;;;;;;;;4991784;28;20073;-80
2023/05/31 04:41:43;;;;;;;3.85;1.88;;;;;;;;;;4989262;28;20069;-81
2023/05/31 04:44:10;;;;;;;4.97;2.00;;;;;;;;;;5015501;28;20097;-83
2023/05/31 04:46:40;;;;;;;5.10;2.28;;;;;;;;;;5005320;28;20081;-85
2023/05/31 04:49:08;;;;;;;3.58;2.05;;;;;;;;;;5005214;28;20050;-88
2023/05/31 04:51:35;;;;;;;6.63;1.90;;;;;;;;;;5004153;28;20030;-87
2023/05/31 04:54:03;;;;;;;3.40;1.70;;;;;;;;;;5037050;28;20037;-88
2023/05/31 04:56:29;;;;;;;5.60;1.65;;;;;;;;;;5004436;28;20065;-85
2023/05/31 04:58:56;;;;;;;4.75;1.60;;;;;;;;;;5003311;28;20061;-87
2023/05/31 05:01:24;;;;;;;1.75;1.50;;;;;;;;;;4977454;28;20507;-83
2023/05/31 05:03:52;;;;;;;5.90;1.95;;;;;;;;;;4974037;28;20058;-83
2023/05/31 05:06:20;;;;;;;3.63;1.50;;;;;;;;;;4963428;28;20062;-84
2023/05/31 05:08:46;;;;;;;6.18;1.35;;;;;;;;;;4962953;28;20050;-84
2023/05/31 05:11:13;;;;;;;4.55;1.70;;;;;;;;;;4962578;28;20054;-84
2023/05/31 05:13:41;;;;;;;3.97;1.60;;;;;;;;;;4962989;28;20519;-86
2023/05/31 05:16:07;;;;;;;5.05;1.50;;;;;;;;;;4978689;28;20097;-85
2023/05/31 05:18:34;;;;;;;5.15;1.63;;;;;;;;;;4963463;28;20058;-80
2023/05/31 05:21:01;;;;;;;5.18;1.55;;;;;;;;;;4964763;28;20105;-82
2023/05/31 05:23:28;;;;;;;2.67;1.50;;;;;;;;;;4975430;28;20431;-82
2023/05/31 05:25:55;;;;;;;4.63;1.70;;;;;;;;;;4944263;28;20108;-81
2023/05/31 05:28:22;;;;;;;4.55;1.83;;;;;;;;;;4952800;28;20081;-82
2023/05/31 05:30:50;;;;;;;3.22;1.80;;;;;;;;;;4993291;28;20050;-82
2023/05/31 05:33:17;;;;;;;4.10;1.60;;;;;;;;;;4965700;28;20054;-82
2023/05/31 05:35:44;;;;;;;6.03;2.00;;;;;;;;;;4999359;28;20081;-82
2023/05/31 05:38:14;;;;;;;3.35;1.67;;;;;;;;;;4982735;28;20097;-81
2023/05/31 05:40:41;;;;;;;2.85;1.58;;;;;;;;;;5017390;28;20050;-82
2023/05/31 05:43:08;;;;;;;3.15;1.67;;;;;;;;;;4996803;28;20109;-81
2023/05/31 05:45:35;;;;;;;5.18;2.03;;;;;;;;;;4981420;28;20050;-81
2023/05/31 05:48:01;;;;;;;3.33;1.58;;;;;;;;;;4981714;28;20125;-81
2023/05/31 05:50:28;;;;;;;4.63;1.60;;;;;;;;;;4984971;28;20086;-80
2023/05/31 05:52:55;;;;;;;4.63;1.70;;;;;;;;;;4983969;28;20090;-79
2023/05/31 05:55:22;;;;;;;4.50;1.67;;;;;;;;;;5012743;28;20074;-78
2023/05/31 05:57:49;;;;;;;5.30;1.50;;;;;;;;;;4996016;28;20050;-80
2023/05/31 06:00:17;;;;;;;8.20;2.03;;;;;;;;;;4964908;28;20169;-81
2023/05/31 06:02:44;;;;;;;3.90;1.70;;;;;;;;;;4998158;28;20066;-82
2023/05/31 06:05:12;;;;;;;6.03;2.00;;;;;;;;;;4979797;28;20051;-79
2023/05/31 06:07:38;;;;;;;4.43;2.40;;;;;;;;;;4979222;28;20086;-79
2023/05/31 06:10:06;;;;;;;6.68;2.42;;;;;;;;;;4980525;28;20092;-80
2023/05/31 06:12:33;;;;;;;5.28;1.88;;;;;;;;;;4980065;28;20081;-80
2023/05/31 06:15:00;;;;;;;4.32;1.80;;;;;;;;;;4980276;28;20418;-79
2023/05/31 06:17:27;;;;;;;3.67;1.42;;;;;;;;;;4980341;28;20058;-80
2023/05/31 06:19:54;;;;;;;4.18;1.48;;;;;;;;;;4981081;28;20485;-80
2023/05/31 06:22:21;;;;;;;6.05;1.70;;;;;;;;;;4979899;28;20418;-79
2023/05/31 06:24:47;;;;;;;5.75;2.08;;;;;;;;;;4962892;28;20133;-79
2023/05/31 06:27:14;;;;;;;5.53;2.25;;;;;;;;;;4978325;28;20193;-79
2023/05/31 06:29:41;;;;;;;3.63;1.80;;;;;;;;;;4978757;28;20057;-79
2023/05/31 06:32:08;;;;;;;5.10;1.80;;;;;;;;;;4960331;28;20054;-80
2023/05/31 06:34:35;;;;;;;4.35;1.95;;;;;;;;;;5010189;28;20053;-81
2023/05/31 06:37:02;;;;;;;3.63;1.70;;;;;;;;;;4992594;28;20054;-80
2023/05/31 06:39:29;;;;;;;4.28;1.63;;;;;;;;;;4960725;28;20049;-80
2023/05/31 06:41:59;;;;;;;3.88;2.22;;;;;;;;;;4961553;28;20056;-79
2023/05/31 06:44:26;;;;;;;7.88;2.25;;;;;;;;;;4987223;28;20051;-80
2023/05/31 06:46:54;;;;;;;5.43;1.80;;;;;;;;;;4974767;28;20513;-80
2023/05/31 06:49:20;;;;;;;3.88;1.90;;;;;;;;;;4970621;28;20491;-80
2023/05/31 06:51:47;;;;;;;5.18;1.58;;;;;;;;;;4975222;28;20050;-78
2023/05/31 06:54:15;;;;;;;3.13;1.55;;;;;;;;;;4997839;28;20050;-79
2023/05/31 06:56:42;;;;;;;5.80;1.80;;;;;;;;;;4966751;28;20069;-79
2023/05/31 06:59:09;;;;;;;2.88;1.70;;;;;;;;;;4965896;28;20054;-80
2023/05/31 07:01:36;;;;;;;5.28;1.60;;;;;;;;;;4961645;28;20086;-78
2023/05/31 07:04:03;;;;;;;4.05;1.90;;;;;;;;;;4965032;28;20116;-80
2023/05/31 07:06:31;;;;;;;2.50;1.50;;;;;;;;;;4961523;28;20077;-84
2023/05/31 07:08:58;;;;;;;3.33;2.00;;;;;;;;;;4964123;28;20054;-79
2023/05/31 07:11:25;;;;;;;4.32;2.15;;;;;;;;;;4964974;28;20105;-79
2023/05/31 07:13:52;;;;;;;9.98;2.10;;;;;;;;;;4981489;28;20058;-79
2023/05/31 07:16:19;;;;;;;6.28;2.15;;;;;;;;;;4966707;28;20058;-79
2023/05/31 07:18:47;;;;;;;2.67;1.83;;;;;;;;;;4995181;28;20051;-79
2023/05/31 07:21:14;;;;;;;2.72;1.50;;;;;;;;;;4962600;28;20074;-79
2023/05/31 07:23:41;;;;;;;2.85;1.50;;;;;;;;;;4961662;28;20158;-78
2023/05/31 07:26:07;;;;;;;2.88;1.63;;;;;;;;;;4960781;28;20062;-81
2023/05/31 07:28:34;;;;;;;7.97;2.40;;;;;;;;;;4975004;28;20485;-78
2023/05/31 07:31:02;;;;;;;4.68;1.65;;;;;;;;;;4962153;28;20105;-78
2023/05/31 07:33:29;;;;;;;8.25;2.28;;;;;;;;;;4959339;28;20116;-77
2023/05/31 07:36:00;;;;;;;3.08;1.75;;;;;;;;;;4959525;28;20509;-77
2023/05/31 07:38:27;;;;;;;2.40;1.65;;;;;;;;;;4957408;28;20074;-75
2023/05/31 07:40:54;;;;;;;3.08;1.80;;;;;;;;;;4957982;28;20093;-75
2023/05/31 07:43:22;;;;;;;4.80;1.80;;;;;;;;;;4957531;28;20517;-75
2023/05/31 07:45:49;;;;;;;4.03;1.52;;;;;;;;;;4973682;28;20459;-74
2023/05/31 07:48:20;;;;;;;5.45;1.95;;;;;;;;;;4957628;28;20077;-73
2023/05/31 07:50:47;;;;;;;4.45;1.85;;;;;;;;;;4958768;28;20038;-76
2023/05/31 07:53:14;;;;;;;4.65;1.85;;;;;;;;;;4971945;28;20133;-76
2023/05/31 07:55:41;;;;;;;5.20;1.83;;;;;;;;;;4990161;28;20053;-76
2023/05/31 07:58:07;;;;;;;4.65;2.08;;;;;;;;;;4959035;28;20133;-76
2023/05/31 08:00:35;;;;;;;3.83;1.70;;;;;;;;;;4987264;28;20153;-76
2023/05/31 08:03:02;;;;;;;5.50;1.75;;;;;;;;;;4995191;28;20422;-79
2023/05/31 08:05:30;;;;;;;4.50;1.90;;;;;;;;;;4975379;28;20058;-80
2023/05/31 08:07:57;;;;;;;5.03;1.88;;;;;;;;;;4960526;28;20062;-80
2023/05/31 08:10:25;;;;;;;5.70;2.33;;;;;;;;;;4979810;28;20419;-80
2023/05/31 08:12:52;;;;;;;3.13;1.70;;;;;;;;;;4976585;28;20085;-82
2023/05/31 08:15:18;;;;;;;3.75;2.05;;;;;;;;;;4990564;28;20062;-81
2023/05/31 08:17:46;;;;;;;5.57;1.83;;;;;;;;;;4974797;28;20117;-81
2023/05/31 08:20:16;;;;;;;4.72;1.95;;;;;;;;;;4978429;28;20054;-80
2023/05/31 08:22:44;;;;;;;4.28;1.90;;;;;;;;;;4980880;28;20050;-81
2023/05/31 08:25:13;;;;;;;4.30;1.85;;;;;;;;;;4966366;28;20061;-80
2023/05/31 08:27:40;;;;;;;4.22;2.08;;;;;;;;;;4982517;28;20054;-82
2023/05/31 08:30:11;;;;;;;7.32;2.30;;;;;;;;;;4963551;28;20097;-81
2023/05/31 08:32:40;;;;;;;2.80;1.70;;;;;;;;;;5008121;28;20134;-81
2023/05/31 08:35:08;;;;;;;6.25;2.20;;;;;;;;;;4970479;28;20061;-81
2023/05/31 08:37:36;;;;;;;4.70;2.20;;;;;;;;;;4979541;28;20463;-82
2023/05/31 08:40:05;;;;;;;6.22;1.90;;;;;;;;;;4998694;28;20050;-81
2023/05/31 08:42:55;;;;;;;4.00;1.95;;;;;;;;;;4975066;28;20066;-82
2023/05/31 08:45:22;;;;;;;7.00;2.15;;;;;;;;;;4992654;28;20070;-81
2023/05/31 08:48:00;;;;;;;4.65;2.00;;;;;;;;;;4985744;28;20335;-81
2023/05/31 08:50:27;;;;;;;7.88;2.97;;;;;;;;;;4987506;28;20085;-81
2023/05/31 08:52:55;;;;;;;3.83;2.10;;;;;;;;;;4978345;28;20076;-81
2023/05/31 08:55:22;;;;;;;8.63;1.80;;;;;;;;;;4962164;28;20085;-82
2023/05/31 08:57:49;;;;;;;5.57;1.80;;;;;;;;;;4962320;28;20162;-81
2023/05/31 09:00:16;;;;;;;5.70;2.05;;;;;;;;;;4983397;28;20125;-80
2023/05/31 09:02:44;;;;;;;4.80;1.88;;;;;;;;;;4965287;28;20046;-81
2023/05/31 09:05:11;;;;;;;5.75;2.20;;;;;;;;;;4983645;28;20500;-80
2023/05/31 09:07:38;;;;;;;4.90;2.05;;;;;;;;;;4979530;28;20145;-78
2023/05/31 09:10:08;;;;;;;5.00;2.45;;;;;;;;;;4970588;28;20055;-77
2023/05/31 09:12:35;;;;;;;5.00;1.92;;;;;;;;;;4959666;28;20058;-77
2023/05/31 09:15:03;;;;;;;2.65;1.73;;;;;;;;;;4954173;28;20055;-77
2023/05/31 09:17:33;;;;;;;5.05;2.17;;;;;;;;;;4956336;28;20062;-76
2023/05/31 09:20:00;;;;;;;6.45;2.33;;;;;;;;;;4983338;28;20047;-77
2023/05/31 09:22:27;;;;;;;5.15;2.13;;;;;;;;;;4973887;28;20105;-77
2023/05/31 09:24:59;;;;;;;4.13;2.00;;;;;;;;;;4986546;28;20062;-77
2023/05/31 09:27:27;;;;;;;5.38;2.10;;;;;;;;;;4958602;28;20054;-77
2023/05/31 09:29:54;;;;;;;6.53;2.10;;;;;;;;;;4956438;28;20078;-77
2023/05/31 09:32:21;;;;;;;4.38;2.30;;;;;;;;;;4958855;28;20074;-77
2023/05/31 09:34:47;;;;;;;3.90;1.88;;;;;;;;;;4958751;28;20503;-77
2023/05/31 09:37:23;;;;;;;6.75;1.75;;;;;;;;;;4977645;28;20120;-77
2023/05/31 09:39:55;;;;;;;8.65;2.00;;;;;;;;;;4986831;28;20081;-77
2023/05/31 09:42:22;;;;;;;6.00;1.90;;;;;;;;;;4960988;28;20502;-77
2023/05/31 09:44:49;;;;;;;5.13;1.80;;;;;;;;;;4977785;28;20050;-77
2023/05/31 09:47:15;;;;;;;6.07;1.95;;;;;;;;;;4958636;28;20131;-79
2023/05/31 09:49:43;;;;;;;4.00;2.17;;;;;;;;;;4974284;28;20097;-81
2023/05/31 09:52:13;;;;;;;7.95;2.42;;;;;;;;;;4989188;28;20058;-80
2023/05/31 09:54:40;;;;;;;4.20;1.80;;;;;;;;;;4975047;28;20396;-78
2023/05/31 09:57:08;;;;;;;5.07;1.88;;;;;;;;;;4975324;28;20093;-77
2023/05/31 09:59:35;;;;;;;5.13;2.28;;;;;;;;;;4950062;28;20054;-76
2023/05/31 10:02:02;;;;;;;4.80;1.92;;;;;;;;;;4959737;28;20523;-76
2023/05/31 10:04:28;;;;;;;3.30;2.00;;;;;;;;;;4975143;28;20054;-76
2023/05/31 10:06:55;;;;;;;3.03;1.70;;;;;;;;;;4957645;28;20084;-76
2023/05/31 10:09:22;;;;;;;7.10;2.40;;;;;;;;;;4964899;28;20105;-76
2023/05/31 10:11:51;;;;;;;5.30;1.90;;;;;;;;;;4977205;28;20048;-77
2023/05/31 10:14:25;;;;;;;4.82;1.90;;;;;;;;;;4975498;28;20566;-77
2023/05/31 10:16:54;;;;;;;4.07;1.60;;;;;;;;;;4977991;28;20141;-76
2023/05/31 10:19:40;;;;;;;3.45;1.95;;;;;;;;;;4965661;28;20076;-76
2023/05/31 10:22:07;;;;;;;3.42;1.80;;;;;;;;;;4948905;28;20233;-77
2023/05/31 10:24:46;;;;;;;6.55;2.42;;;;;;;;;;4974208;28;20050;-77
2023/05/31 10:27:22;;;;;;;3.28;1.70;;;;;;;;;;4969105;28;20096;-76
2023/05/31 10:29:52;;;;;;;4.90;2.25;;;;;;;;;;4974444;28;20050;-76
2023/05/31 10:32:20;;;;;;;3.92;1.70;;;;;;;;;;4963620;28;20100;-76
2023/05/31 10:34:47;;;;;;;6.65;2.20;;;;;;;;;;4985031;28;20396;-76
2023/05/31 10:37:14;;;;;;;3.22;1.58;;;;;;;;;;4971812;28;20057;-76
2023/05/31 10:39:53;;;;;;;5.97;1.85;;;;;;;;;;4967330;28;20079;-76
2023/05/31 10:42:43;;;;;;;2.97;1.90;;;;;;;;;;4963299;28;20073;-76
2023/05/31 10:45:15;;;;;;;7.80;1.67;;;;;;;;;;4969333;28;20081;-76
2023/05/31 10:47:55;;;;;;;;;;;;;;;;;;4997906;28;20046;-76
2023/05/31 10:50:22;;;;;;;4.35;1.70;;;;;;;;;;4972240;28;19925;-76
2023/05/31 10:52:50;;;;;;;3.25;1.50;;;;;;;;;;4971220;28;20093;-76
2023/05/31 10:55:23;;;;;;;5.40;1.70;;;;;;;;;;4988064;28;20050;-76
2023/05/31 10:57:55;;;;;;;4.97;1.95;;;;;;;;;;4969081;28;20050;-75
2023/05/31 11:00:23;;;;;;;3.65;1.63;;;;;;;;;;4987854;28;20038;-76
2023/05/31 11:02:56;;;;;;;3.88;1.63;;;;;;;;;;4984071;28;20521;-76
2023/05/31 11:05:26;;;;;;;3.72;1.92;;;;;;;;;;4954019;28;20130;-76
2023/05/31 11:07:57;;;;;;;5.97;1.85;;;;;;;;;;4980841;28;20058;-76
2023/05/31 11:10:25;;;;;;;3.50;1.48;;;;;;;;;;4957254;28;20057;-76
2023/05/31 11:12:56;;;;;;;5.30;2.45;;;;;;;;;;4974222;28;20399;-76
2023/05/31 11:15:22;;;;;;;2.97;1.48;;;;;;;;;;4971898;28;20050;-76
2023/05/31 11:17:54;;;;;;;3.20;1.50;;;;;;;;;;4988489;28;20077;-75
2023/05/31 11:20:22;;;;;;;3.53;1.80;;;;;;;;;;4966593;28;20519;-76
2023/05/31 11:23:31;;;;;;;3.60;1.60;;;;;;;;;;4956132;28;20050;-76
2023/05/31 11:26:10;;;;;;;2.17;1.42;;;;;;;;;;4964813;28;20549;-76
2023/05/31 11:28:58;;;;;;;2.85;1.55;;;;;;;;;;4971061;28;20051;-76
2023/05/31 11:31:50;;;;;;;4.63;1.90;;;;;;;;;;4953581;28;20082;-76
2023/05/31 11:34:23;;;;;;;2.88;1.40;;;;;;;;;;4977663;28;20090;-76
2023/05/31 11:36:51;;;;;;;4.57;1.65;;;;;;;;;;4957159;28;20050;-76
2023/05/31 11:39:21;;;;;;;2.90;1.75;;;;;;;;;;4972600;28;20078;-76
2023/05/31 11:41:48;;;;;;;4.13;1.60;;;;;;;;;;4973753;28;20399;-78
2023/05/31 11:44:16;;;;;;;4.47;2.13;;;;;;;;;;4976243;28;20578;-83
2023/05/31 11:46:46;;;;;;;2.65;1.30;;;;;;;;;;4978742;28;20133;-82
2023/05/31 11:49:13;;;;;;;2.30;1.50;;;;;;;;;;4992065;28;20054;-82
2023/05/31 11:51:43;;;;;;;3.17;1.60;;;;;;;;;;4958697;28;20133;-74
2023/05/31 11:54:14;;;;;;;2.90;1.20;;;;;;;;;;4983748;28;20515;-74
2023/05/31 11:56:41;;;;;;;4.15;1.65;;;;;;;;;;4974097;28;20058;-74
2023/05/31 11:59:08;;;;;;;2.95;2.05;;;;;;;;;;4987602;28;20132;-74
2023/05/31 12:01:36;;;;;;;4.10;1.63;;;;;;;;;;4981323;28;20050;-74
2023/05/31 12:04:02;;;;;;;7.07;1.77;;;;;;;;;;4957680;28;20068;-74
2023/05/31 12:06:29;;;;;;;4.45;2.03;;;;;;;;;;4978781;28;20082;-76
2023/05/31 12:08:56;;;;;;;2.20;1.55;;;;;;;;;;4973830;28;20054;-74
2023/05/31 12:11:23;;;;;;;2.65;1.67;;;;;;;;;;4971331;28;20137;-74
2023/05/31 12:13:49;;;;;;;2.08;1.33;;;;;;;;;;4966734;28;20199;-74
2023/05/31 12:16:16;;;;;;;3.65;1.48;;;;;;;;;;4962659;28;20101;-74
2023/05/31 12:18:43;;;;;;;3.75;1.40;;;;;;;;;;4976597;28;20047;-74
2023/05/31 12:21:15;;;;;;;4.75;1.60;;;;;;;;;;4954399;28;20121;-74
2023/05/31 12:23:57;;;;;;;3.30;1.63;;;;;;;;;;4989201;28;20423;-74
2023/05/31 12:26:24;;;;;;;4.65;1.80;;;;;;;;;;4957518;28;20046;-74
2023/05/31 12:28:51;;;;;;;4.68;1.63;;;;;;;;;;4955345;28;20058;-74
2023/05/31 12:31:24;;;;;;;4.05;1.90;;;;;;;;;;4988853;28;20046;-74
2023/05/31 12:34:04;;;;;;;4.18;1.83;;;;;;;;;;4963680;28;20058;-74
2023/05/31 12:36:44;;;;;;;3.78;2.00;;;;;;;;;;4990212;28;20097;-74
2023/05/31 12:39:17;;;;;;;2.33;1.60;;;;;;;;;;4958973;28;20082;-74
2023/05/31 12:41:45;;;;;;;3.53;1.65;;;;;;;;;;4959836;28;20101;-76
2023/05/31 12:44:19;;;;;;;2.83;1.52;;;;;;;;;;4956977;28;20073;-76
2023/05/31 12:46:48;;;;;;;2.90;1.77;;;;;;;;;;4971840;28;20061;-76
2023/05/31 12:49:31;;;;;;;2.70;1.55;;;;;;;;;;4980932;28;20046;-77
2023/05/31 12:52:09;;;;;;;3.17;1.50;;;;;;;;;;4984896;28;20070;-81
2023/05/31 12:54:39;;;;;;;3.53;1.95;;;;;;;;;;4978512;28;20085;-78
2023/05/31 12:57:08;;;;;;;2.15;1.52;;;;;;;;;;4962078;28;20062;-77
2023/05/31 12:59:36;;;;;;;3.55;1.30;;;;;;;;;;4966862;28;20060;-78
2023/05/31 13:02:04;;;;;;;2.20;1.10;;;;;;;;;;4975612;28;20046;-77
2023/05/31 13:04:32;;;;;;;2.05;1.25;;;;;;;;;;4974185;28;20121;-78
2023/05/31 13:07:01;;;;;;;2.35;1.30;;;;;;;;;;4994892;28;20477;-77
2023/05/31 13:09:28;;;;;;;3.10;1.85;;;;;;;;;;5000736;28;20055;-78
2023/05/31 13:11:55;;;;;;;4.32;1.42;;;;;;;;;;4965749;28;20422;-77
2023/05/31 13:14:22;;;;;;;2.25;1.58;;;;;;;;;;4943360;28;20515;-77
2023/05/31 13:16:52;;;;;;;2.40;1.60;;;;;;;;;;4972543;28;20142;-77
2023/05/31 13:19:19;;;;;;;2.88;1.40;;;;;;;;;;4944580;28;20055;-79
2023/05/31 13:21:46;;;;;;;4.60;1.70;;;;;;;;;;4956837;28;20050;-78
2023/05/31 13:24:13;;;;;;;4.50;2.10;;;;;;;;;;4980096;28;20054;-78
2023/05/31 13:26:41;;;;;;;4.32;1.55;;;;;;;;;;4964218;28;20112;-78
2023/05/31 13:29:07;;;;;;;1.67;1.50;;;;;;;;;;4963656;28;20137;-78
2023/05/31 13:31:34;;;;;;;2.75;1.60;;;;;;;;;;4964102;28;20120;-79
2023/05/31 13:34:01;;;;;;;3.10;1.52;;;;;;;;;;4964302;28;20055;-78
2023/05/31 13:36:28;;;;;;;2.55;1.75;;;;;;;;;;4996386;28;20081;-80
2023/05/31 13:38:55;;;;;;;2.78;1.20;;;;;;;;;;4980378;28;20081;-79
2023/05/31 13:41:21;;;;;;;2.33;1.73;;;;;;;;;;4964678;28;20138;-78
2023/05/31 13:43:49;;;;;;;1.95;1.25;;;;;;;;;;4979894;28;20131;-76
2023/05/31 13:46:18;;;;;;;2.03;1.13;;;;;;;;;;4993680;28;20426;-78
2023/05/31 13:48:45;;;;;;;3.65;1.48;;;;;;;;;;4962601;28;20055;-78
2023/05/31 13:51:12;;;;;;;3.15;1.30;;;;;;;;;;4978034;28;20090;-78
2023/05/31 13:53:39;;;;;;;2.40;1.48;;;;;;;;;;4978009;28;20090;-79
2023/05/31 13:56:08;;;;;;;2.88;1.42;;;;;;;;;;4962223;28;20054;-78
2023/05/31 13:58:38;;;;;;;3.90;1.85;;;;;;;;;;4988846;28;20145;-78
2023/05/31 14:01:08;;;;;;;2.58;1.88;;;;;;;;;;4966461;28;20565;-78
2023/05/31 14:03:37;;;;;;;4.65;1.67;;;;;;;;;;4966355;28;20088;-78
2023/05/31 14:06:04;;;;;;;3.17;1.60;;;;;;;;;;4966285;28;20086;-78
2023/05/31 14:08:31;;;;;;;2.28;1.33;;;;;;;;;;4997368;28;20054;-78
2023/05/31 14:10:58;;;;;;;2.58;1.52;;;;;;;;;;4965163;28;20133;-78
2023/05/31 14:13:25;;;;;;;2.70;1.60;;;;;;;;;;4981173;28;20054;-79
2023/05/31 14:15:52;;;;;;;6.70;1.38;;;;;;;;;;4964982;28;20104;-78
2023/05/31 14:18:19;;;;;;;3.85;1.60;;;;;;;;;;4964670;28;20050;-79
2023/05/31 14:20:48;;;;;;;2.90;1.23;;;;;;;;;;4961737;28;20057;-79
2023/05/31 14:23:15;;;;;;;3.38;1.40;;;;;;;;;;4977347;28;20050;-79
2023/05/31 14:25:42;;;;;;;4.32;1.80;;;;;;;;;;4977586;28;20055;-77
2023/05/31 14:28:09;;;;;;;7.47;1.38;;;;;;;;;;4973549;28;20133;-77
2023/05/31 14:30:36;;;;;;;1.38;1.20;;;;;;;;;;4960647;28;20086;-83
2023/05/31 14:33:03;;;;;;;1.48;1.23;;;;;;;;;;4961301;28;20059;-84
2023/05/31 14:35:30;;;;;;;5.32;1.38;;;;;;;;;;4958670;28;20055;-77
2023/05/31 14:37:57;;;;;;;2.72;1.42;;;;;;;;;;4962967;28;20059;-82
2023/05/31 14:40:45;;;;;;;3.25;1.23;;;;;;;;;;4983286;28;20133;-78
2023/05/31 14:43:15;;;;;;;2.33;1.85;;;;;;;;;;4960483;28;20428;-75
2023/05/31 14:45:42;;;;;;;1.90;1.30;;;;;;;;;;4991243;28;20055;-75
2023/05/31 14:48:08;;;;;;;3.55;1.75;;;;;;;;;;4976019;28;20042;-77
2023/05/31 14:50:35;;;;;;;3.05;1.50;;;;;;;;;;4990111;28;20050;-75